sensor_id;sensor_type;location;lat;lon;timestamp;P1;durP1;ratioP1;P2;durP2;ratioP2
23001;SDS011;11667;51.706;4.856;2022-08-03T00:02:20;7.12;;;1.95;;
23001;SDS011;11667;51.706;4.856;2022-08-03T00:04:49;3.80;;;1.30;;
23001;SDS011;11667;51.706;4.856;2022-08-03T00:07:18;5.25;;;1.50;;
23001;SDS011;11667;51.706;4.856;2022-08-03T00:09:48;7.03;;;1.85;;
23001;SDS011;11667;51.706;4.856;2022-08-03T00:12:17;4.80;;;1.50;;
23001;SDS011;11667;51.706;4.856;2022-08-03T00:14:46;4.90;;;1.55;;
23001;SDS011;11667;51.706;4.856;2022-08-03T00:17:16;5.58;;;1.67;;
23001;SDS011;11667;51.706;4.856;2022-08-03T00:19:45;8.10;;;1.50;;
23001;SDS011;11667;51.706;4.856;2022-08-03T00:22:14;5.67;;;1.77;;
23001;SDS011;11667;51.706;4.856;2022-08-03T00:24:44;5.00;;;1.37;;
23001;SDS011;11667;51.706;4.856;2022-08-03T00:27:13;8.35;;;1.82;;
23001;SDS011;11667;51.706;4.856;2022-08-03T00:29:43;7.90;;;2.30;;
23001;SDS011;11667;51.706;4.856;2022-08-03T00:32:14;9.45;;;1.85;;
23001;SDS011;11667;51.706;4.856;2022-08-03T00:34:45;3.83;;;1.40;;
23001;SDS011;11667;51.706;4.856;2022-08-03T00:37:16;4.92;;;1.72;;
23001;SDS011;11667;51.706;4.856;2022-08-03T00:39:45;6.70;;;1.90;;
23001;SDS011;11667;51.706;4.856;2022-08-03T00:42:14;10.15;;;1.82;;
23001;SDS011;11667;51.706;4.856;2022-08-03T00:44:44;4.80;;;1.50;;
23001;SDS011;11667;51.706;4.856;2022-08-03T00:47:13;5.62;;;1.45;;
23001;SDS011;11667;51.706;4.856;2022-08-03T00:49:43;8.25;;;1.95;;
23001;SDS011;11667;51.706;4.856;2022-08-03T00:52:12;7.25;;;2.33;;
23001;SDS011;11667;51.706;4.856;2022-08-03T00:54:42;6.72;;;2.20;;
23001;SDS011;11667;51.706;4.856;2022-08-03T00:57:11;4.92;;;1.87;;
23001;SDS011;11667;51.706;4.856;2022-08-03T00:59:40;8.43;;;2.00;;
23001;SDS011;11667;51.706;4.856;2022-08-03T01:02:09;3.05;;;1.30;;
23001;SDS011;11667;51.706;4.856;2022-08-03T01:04:39;3.25;;;1.32;;
23001;SDS011;11667;51.706;4.856;2022-08-03T01:07:10;9.20;;;1.72;;
23001;SDS011;11667;51.706;4.856;2022-08-03T01:10:10;3.33;;;1.72;;
23001;SDS011;11667;51.706;4.856;2022-08-03T01:12:22;8.13;;;1.67;;
23001;SDS011;11667;51.706;4.856;2022-08-03T01:15:07;11.50;;;2.22;;
23001;SDS011;11667;51.706;4.856;2022-08-03T01:17:50;4.65;;;1.50;;
23001;SDS011;11667;51.706;4.856;2022-08-03T01:20:24;3.83;;;1.40;;
23001;SDS011;11667;51.706;4.856;2022-08-03T01:28:24;5.45;;;1.55;;
23001;SDS011;11667;51.706;4.856;2022-08-03T01:31:06;6.92;;;1.40;;
23001;SDS011;11667;51.706;4.856;2022-08-03T01:33:45;4.90;;;1.42;;
23001;SDS011;11667;51.706;4.856;2022-08-03T01:36:17;10.13;;;2.05;;
23001;SDS011;11667;51.706;4.856;2022-08-03T01:38:52;5.70;;;1.50;;
23001;SDS011;11667;51.706;4.856;2022-08-03T01:41:24;4.12;;;1.52;;
23001;SDS011;11667;51.706;4.856;2022-08-03T01:43:52;3.72;;;1.22;;
23001;SDS011;11667;51.706;4.856;2022-08-03T01:46:24;5.72;;;1.30;;
23001;SDS011;11667;51.706;4.856;2022-08-03T01:48:54;10.13;;;1.32;;
23001;SDS011;11667;51.706;4.856;2022-08-03T01:51:24;7.08;;;2.00;;
23001;SDS011;11667;51.706;4.856;2022-08-03T01:53:55;4.00;;;1.40;;
23001;SDS011;11667;51.706;4.856;2022-08-03T01:56:25;3.05;;;1.20;;
23001;SDS011;11667;51.706;4.856;2022-08-03T01:58:55;4.60;;;1.47;;
23001;SDS011;11667;51.706;4.856;2022-08-03T02:01:25;2.35;;;1.10;;
23001;SDS011;11667;51.706;4.856;2022-08-03T02:03:57;3.72;;;1.17;;
23001;SDS011;11667;51.706;4.856;2022-08-03T02:06:28;3.37;;;1.20;;
23001;SDS011;11667;51.706;4.856;2022-08-03T02:09:01;5.12;;;1.55;;
23001;SDS011;11667;51.706;4.856;2022-08-03T02:11:31;4.45;;;1.15;;
23001;SDS011;11667;51.706;4.856;2022-08-03T02:14:03;5.12;;;1.32;;
23001;SDS011;11667;51.706;4.856;2022-08-03T02:16:33;9.73;;;1.07;;
23001;SDS011;11667;51.706;4.856;2022-08-03T02:19:05;5.28;;;1.32;;
23001;SDS011;11667;51.706;4.856;2022-08-03T02:21:35;7.85;;;1.72;;
23001;SDS011;11667;51.706;4.856;2022-08-03T02:24:07;5.00;;;1.10;;
23001;SDS011;11667;51.706;4.856;2022-08-03T02:26:37;4.75;;;1.45;;
23001;SDS011;11667;51.706;4.856;2022-08-03T02:29:10;2.95;;;1.10;;
23001;SDS011;11667;51.706;4.856;2022-08-03T02:34:10;4.50;;;1.45;;
23001;SDS011;11667;51.706;4.856;2022-08-03T02:36:40;3.92;;;1.05;;
23001;SDS011;11667;51.706;4.856;2022-08-03T02:39:10;4.87;;;1.40;;
23001;SDS011;11667;51.706;4.856;2022-08-03T02:41:42;7.30;;;1.82;;
23001;SDS011;11667;51.706;4.856;2022-08-03T02:44:19;13.85;;;3.08;;
23001;SDS011;11667;51.706;4.856;2022-08-03T02:46:52;6.03;;;1.15;;
23001;SDS011;11667;51.706;4.856;2022-08-03T02:49:22;3.87;;;1.10;;
23001;SDS011;11667;51.706;4.856;2022-08-03T02:54:23;5.83;;;1.30;;
23001;SDS011;11667;51.706;4.856;2022-08-03T02:56:54;8.10;;;1.20;;
23001;SDS011;11667;51.706;4.856;2022-08-03T02:59:25;4.25;;;1.10;;
23001;SDS011;11667;51.706;4.856;2022-08-03T03:04:27;6.25;;;1.12;;
23001;SDS011;11667;51.706;4.856;2022-08-03T03:06:58;1.72;;;0.90;;
23001;SDS011;11667;51.706;4.856;2022-08-03T03:09:30;3.02;;;1.00;;
23001;SDS011;11667;51.706;4.856;2022-08-03T03:12:01;6.80;;;1.37;;
23001;SDS011;11667;51.706;4.856;2022-08-03T03:14:31;3.15;;;1.42;;
23001;SDS011;11667;51.706;4.856;2022-08-03T03:17:01;3.72;;;0.82;;
23001;SDS011;11667;51.706;4.856;2022-08-03T03:19:31;6.05;;;1.27;;
23001;SDS011;11667;51.706;4.856;2022-08-03T03:22:01;2.25;;;1.17;;
23001;SDS011;11667;51.706;4.856;2022-08-03T03:24:31;4.25;;;0.90;;
23001;SDS011;11667;51.706;4.856;2022-08-03T03:27:00;4.85;;;0.80;;
23001;SDS011;11667;51.706;4.856;2022-08-03T03:29:31;3.72;;;1.10;;
23001;SDS011;11667;51.706;4.856;2022-08-03T03:32:03;2.37;;;1.07;;
23001;SDS011;11667;51.706;4.856;2022-08-03T03:34:34;2.47;;;1.15;;
23001;SDS011;11667;51.706;4.856;2022-08-03T03:37:04;1.72;;;0.90;;
23001;SDS011;11667;51.706;4.856;2022-08-03T03:39:33;3.83;;;1.05;;
23001;SDS011;11667;51.706;4.856;2022-08-03T03:42:03;4.35;;;1.10;;
23001;SDS011;11667;51.706;4.856;2022-08-03T03:44:33;3.83;;;0.93;;
23001;SDS011;11667;51.706;4.856;2022-08-03T03:47:02;4.67;;;1.60;;
23001;SDS011;11667;51.706;4.856;2022-08-03T03:49:32;4.35;;;1.30;;
23001;SDS011;11667;51.706;4.856;2022-08-03T03:52:01;7.15;;;1.75;;
23001;SDS011;11667;51.706;4.856;2022-08-03T03:54:40;5.58;;;1.92;;
23001;SDS011;11667;51.706;4.856;2022-08-03T03:57:10;3.92;;;1.25;;
23001;SDS011;11667;51.706;4.856;2022-08-03T03:59:41;5.40;;;1.22;;
23001;SDS011;11667;51.706;4.856;2022-08-03T04:02:11;5.67;;;1.25;;
23001;SDS011;11667;51.706;4.856;2022-08-03T04:04:40;4.37;;;1.32;;
23001;SDS011;11667;51.706;4.856;2022-08-03T04:07:21;4.17;;;1.62;;
23001;SDS011;11667;51.706;4.856;2022-08-03T04:10:15;5.72;;;2.05;;
23001;SDS011;11667;51.706;4.856;2022-08-03T04:12:59;3.45;;;1.10;;
23001;SDS011;11667;51.706;4.856;2022-08-03T04:15:31;3.60;;;1.10;;
23001;SDS011;11667;51.706;4.856;2022-08-03T04:18:01;14.80;;;1.60;;
23001;SDS011;11667;51.706;4.856;2022-08-03T04:20:31;3.37;;;1.65;;
23001;SDS011;11667;51.706;4.856;2022-08-03T04:23:02;9.20;;;1.62;;
23001;SDS011;11667;51.706;4.856;2022-08-03T04:25:34;4.72;;;2.22;;
23001;SDS011;11667;51.706;4.856;2022-08-03T04:28:05;7.55;;;1.40;;
23001;SDS011;11667;51.706;4.856;2022-08-03T04:30:37;2.77;;;0.85;;
23001;SDS011;11667;51.706;4.856;2022-08-03T04:33:09;3.70;;;1.67;;
23001;SDS011;11667;51.706;4.856;2022-08-03T04:35:39;4.30;;;1.42;;
23001;SDS011;11667;51.706;4.856;2022-08-03T04:38:13;5.62;;;1.60;;
23001;SDS011;11667;51.706;4.856;2022-08-03T04:40:43;4.92;;;1.60;;
23001;SDS011;11667;51.706;4.856;2022-08-03T04:43:14;4.75;;;1.52;;
23001;SDS011;11667;51.706;4.856;2022-08-03T04:45:45;7.50;;;1.85;;
23001;SDS011;11667;51.706;4.856;2022-08-03T04:48:15;1.87;;;1.50;;
23001;SDS011;11667;51.706;4.856;2022-08-03T04:50:46;3.60;;;1.10;;
23001;SDS011;11667;51.706;4.856;2022-08-03T04:53:16;6.60;;;1.35;;
23001;SDS011;11667;51.706;4.856;2022-08-03T04:55:46;2.15;;;1.10;;
23001;SDS011;11667;51.706;4.856;2022-08-03T04:58:15;3.85;;;1.20;;
23001;SDS011;11667;51.706;4.856;2022-08-03T05:00:44;2.85;;;0.90;;
23001;SDS011;11667;51.706;4.856;2022-08-03T05:03:15;1.92;;;0.78;;
23001;SDS011;11667;51.706;4.856;2022-08-03T05:05:46;6.78;;;2.00;;
23001;SDS011;11667;51.706;4.856;2022-08-03T05:08:17;4.03;;;1.12;;
23001;SDS011;11667;51.706;4.856;2022-08-03T05:10:48;1.77;;;0.85;;
23001;SDS011;11667;51.706;4.856;2022-08-03T05:13:18;3.85;;;1.27;;
23001;SDS011;11667;51.706;4.856;2022-08-03T05:15:47;6.67;;;1.40;;
23001;SDS011;11667;51.706;4.856;2022-08-03T05:18:17;4.78;;;1.52;;
23001;SDS011;11667;51.706;4.856;2022-08-03T05:20:46;5.17;;;1.37;;
23001;SDS011;11667;51.706;4.856;2022-08-03T05:23:16;3.50;;;1.67;;
23001;SDS011;11667;51.706;4.856;2022-08-03T05:25:45;3.60;;;0.80;;
23001;SDS011;11667;51.706;4.856;2022-08-03T05:28:16;7.55;;;1.42;;
23001;SDS011;11667;51.706;4.856;2022-08-03T05:30:45;5.33;;;1.95;;
23001;SDS011;11667;51.706;4.856;2022-08-03T05:33:14;3.00;;;0.90;;
23001;SDS011;11667;51.706;4.856;2022-08-03T05:35:44;4.42;;;1.15;;
23001;SDS011;11667;51.706;4.856;2022-08-03T05:38:15;5.25;;;1.42;;
23001;SDS011;11667;51.706;4.856;2022-08-03T05:40:46;3.55;;;1.22;;
23001;SDS011;11667;51.706;4.856;2022-08-03T05:43:17;2.70;;;0.93;;
23001;SDS011;11667;51.706;4.856;2022-08-03T05:45:47;3.52;;;1.67;;
23001;SDS011;11667;51.706;4.856;2022-08-03T05:48:18;3.00;;;1.10;;
23001;SDS011;11667;51.706;4.856;2022-08-03T05:50:47;8.28;;;1.72;;
23001;SDS011;11667;51.706;4.856;2022-08-03T05:53:17;3.15;;;1.00;;
23001;SDS011;11667;51.706;4.856;2022-08-03T05:55:46;12.85;;;1.90;;
23001;SDS011;11667;51.706;4.856;2022-08-03T05:58:17;4.40;;;1.22;;
23001;SDS011;11667;51.706;4.856;2022-08-03T06:00:46;5.33;;;1.30;;
23001;SDS011;11667;51.706;4.856;2022-08-03T06:03:16;1.62;;;1.17;;
23001;SDS011;11667;51.706;4.856;2022-08-03T06:05:48;5.85;;;1.55;;
23001;SDS011;11667;51.706;4.856;2022-08-03T06:08:19;4.65;;;1.00;;
23001;SDS011;11667;51.706;4.856;2022-08-03T06:10:49;7.15;;;1.57;;
23001;SDS011;11667;51.706;4.856;2022-08-03T06:13:18;2.05;;;1.22;;
23001;SDS011;11667;51.706;4.856;2022-08-03T06:15:48;5.47;;;1.32;;
23001;SDS011;11667;51.706;4.856;2022-08-03T06:18:17;7.92;;;1.52;;
23001;SDS011;11667;51.706;4.856;2022-08-03T06:20:47;4.42;;;1.72;;
23001;SDS011;11667;51.706;4.856;2022-08-03T06:23:18;7.15;;;1.67;;
23001;SDS011;11667;51.706;4.856;2022-08-03T06:25:48;5.00;;;1.52;;
23001;SDS011;11667;51.706;4.856;2022-08-03T06:28:17;5.17;;;1.35;;
23001;SDS011;11667;51.706;4.856;2022-08-03T06:30:48;3.33;;;0.98;;
23001;SDS011;11667;51.706;4.856;2022-08-03T06:33:17;5.33;;;1.35;;
23001;SDS011;11667;51.706;4.856;2022-08-03T06:35:47;1.62;;;0.70;;
23001;SDS011;11667;51.706;4.856;2022-08-03T06:38:16;7.70;;;1.62;;
23001;SDS011;11667;51.706;4.856;2022-08-03T06:40:45;4.47;;;1.15;;
23001;SDS011;11667;51.706;4.856;2022-08-03T06:43:16;11.75;;;1.65;;
23001;SDS011;11667;51.706;4.856;2022-08-03T06:45:46;3.98;;;0.90;;
23001;SDS011;11667;51.706;4.856;2022-08-03T06:48:15;1.27;;;0.90;;
23001;SDS011;11667;51.706;4.856;2022-08-03T06:50:44;5.08;;;1.50;;
23001;SDS011;11667;51.706;4.856;2022-08-03T06:53:14;5.12;;;1.65;;
23001;SDS011;11667;51.706;4.856;2022-08-03T06:55:45;3.10;;;1.05;;
23001;SDS011;11667;51.706;4.856;2022-08-03T06:58:16;3.30;;;1.12;;
23001;SDS011;11667;51.706;4.856;2022-08-03T07:00:45;2.98;;;1.30;;
23001;SDS011;11667;51.706;4.856;2022-08-03T07:03:15;2.70;;;0.95;;
23001;SDS011;11667;51.706;4.856;2022-08-03T07:05:44;5.47;;;1.07;;
23001;SDS011;11667;51.706;4.856;2022-08-03T07:08:14;3.98;;;1.35;;
23001;SDS011;11667;51.706;4.856;2022-08-03T07:10:45;22.58;;;2.35;;
23001;SDS011;11667;51.706;4.856;2022-08-03T07:13:14;7.95;;;1.60;;
23001;SDS011;11667;51.706;4.856;2022-08-03T07:15:43;2.90;;;1.40;;
23001;SDS011;11667;51.706;4.856;2022-08-03T07:18:15;5.75;;;1.00;;
23001;SDS011;11667;51.706;4.856;2022-08-03T07:20:46;4.22;;;2.00;;
23001;SDS011;11667;51.706;4.856;2022-08-03T07:23:15;6.25;;;1.30;;
23001;SDS011;11667;51.706;4.856;2022-08-03T07:25:45;12.65;;;1.60;;
23001;SDS011;11667;51.706;4.856;2022-08-03T07:28:15;7.42;;;1.90;;
23001;SDS011;11667;51.706;4.856;2022-08-03T07:30:44;5.08;;;1.40;;
23001;SDS011;11667;51.706;4.856;2022-08-03T07:33:13;3.05;;;1.00;;
23001;SDS011;11667;51.706;4.856;2022-08-03T07:35:43;5.92;;;1.15;;
23001;SDS011;11667;51.706;4.856;2022-08-03T07:38:12;7.22;;;1.98;;
23001;SDS011;11667;51.706;4.856;2022-08-03T07:40:42;2.95;;;1.12;;
23001;SDS011;11667;51.706;4.856;2022-08-03T07:43:13;5.60;;;1.20;;
23001;SDS011;11667;51.706;4.856;2022-08-03T07:45:42;2.35;;;1.00;;
23001;SDS011;11667;51.706;4.856;2022-08-03T07:48:11;5.03;;;1.27;;
23001;SDS011;11667;51.706;4.856;2022-08-03T07:50:41;3.08;;;0.72;;
23001;SDS011;11667;51.706;4.856;2022-08-03T07:53:10;5.33;;;1.40;;
23001;SDS011;11667;51.706;4.856;2022-08-03T07:55:40;3.67;;;1.75;;
23001;SDS011;11667;51.706;4.856;2022-08-03T07:58:10;4.47;;;1.45;;
23001;SDS011;11667;51.706;4.856;2022-08-03T08:00:43;4.33;;;1.77;;
23001;SDS011;11667;51.706;4.856;2022-08-03T08:03:12;4.20;;;1.65;;
23001;SDS011;11667;51.706;4.856;2022-08-03T08:05:41;14.85;;;1.80;;
23001;SDS011;11667;51.706;4.856;2022-08-03T08:08:11;2.15;;;1.00;;
23001;SDS011;11667;51.706;4.856;2022-08-03T08:10:40;2.27;;;0.90;;
23001;SDS011;11667;51.706;4.856;2022-08-03T08:13:11;3.12;;;1.25;;
23001;SDS011;11667;51.706;4.856;2022-08-03T08:15:41;3.80;;;1.12;;
23001;SDS011;11667;51.706;4.856;2022-08-03T08:18:10;4.80;;;1.10;;
23001;SDS011;11667;51.706;4.856;2022-08-03T08:20:39;4.10;;;0.98;;
23001;SDS011;11667;51.706;4.856;2022-08-03T08:23:10;2.17;;;0.90;;
23001;SDS011;11667;51.706;4.856;2022-08-03T08:25:41;5.12;;;1.32;;
23001;SDS011;11667;51.706;4.856;2022-08-03T08:28:10;5.97;;;1.47;;
23001;SDS011;11667;51.706;4.856;2022-08-03T08:30:41;9.28;;;1.42;;
23001;SDS011;11667;51.706;4.856;2022-08-03T08:33:11;7.30;;;1.60;;
23001;SDS011;11667;51.706;4.856;2022-08-03T08:35:42;5.08;;;1.17;;
23001;SDS011;11667;51.706;4.856;2022-08-03T08:38:11;39.18;;;5.25;;
23001;SDS011;11667;51.706;4.856;2022-08-03T08:40:40;17.87;;;3.37;;
23001;SDS011;11667;51.706;4.856;2022-08-03T08:43:10;14.83;;;2.85;;
23001;SDS011;11667;51.706;4.856;2022-08-03T08:45:40;15.95;;;2.98;;
23001;SDS011;11667;51.706;4.856;2022-08-03T08:48:09;24.63;;;3.65;;
23001;SDS011;11667;51.706;4.856;2022-08-03T08:50:40;16.05;;;3.52;;
23001;SDS011;11667;51.706;4.856;2022-08-03T08:53:09;11.70;;;2.85;;
23001;SDS011;11667;51.706;4.856;2022-08-03T08:55:42;14.30;;;3.33;;
23001;SDS011;11667;51.706;4.856;2022-08-03T08:58:16;17.62;;;3.30;;
23001;SDS011;11667;51.706;4.856;2022-08-03T09:00:47;14.70;;;2.80;;
23001;SDS011;11667;51.706;4.856;2022-08-03T09:03:17;15.13;;;3.08;;
23001;SDS011;11667;51.706;4.856;2022-08-03T09:05:48;14.07;;;3.08;;
23001;SDS011;11667;51.706;4.856;2022-08-03T09:08:20;17.00;;;2.95;;
23001;SDS011;11667;51.706;4.856;2022-08-03T09:10:49;15.98;;;2.85;;
23001;SDS011;11667;51.706;4.856;2022-08-03T09:13:19;11.78;;;2.80;;
23001;SDS011;11667;51.706;4.856;2022-08-03T09:15:53;17.92;;;3.02;;
23001;SDS011;11667;51.706;4.856;2022-08-03T09:18:33;15.13;;;3.52;;
23001;SDS011;11667;51.706;4.856;2022-08-03T09:21:19;15.95;;;2.92;;
23001;SDS011;11667;51.706;4.856;2022-08-03T09:23:53;16.77;;;3.00;;
23001;SDS011;11667;51.706;4.856;2022-08-03T09:26:26;15.32;;;3.60;;
23001;SDS011;11667;51.706;4.856;2022-08-03T09:28:56;13.72;;;3.12;;
23001;SDS011;11667;51.706;4.856;2022-08-03T09:31:34;15.28;;;3.15;;
23001;SDS011;11667;51.706;4.856;2022-08-03T09:34:06;10.45;;;3.00;;
23001;SDS011;11667;51.706;4.856;2022-08-03T09:36:38;10.72;;;2.70;;
23001;SDS011;11667;51.706;4.856;2022-08-03T09:39:13;14.38;;;2.98;;
23001;SDS011;11667;51.706;4.856;2022-08-03T09:42:04;16.12;;;3.08;;
23001;SDS011;11667;51.706;4.856;2022-08-03T09:44:39;10.48;;;2.55;;
23001;SDS011;11667;51.706;4.856;2022-08-03T09:47:11;11.40;;;2.60;;
23001;SDS011;11667;51.706;4.856;2022-08-03T09:49:54;13.22;;;2.75;;
23001;SDS011;11667;51.706;4.856;2022-08-03T09:52:18;14.30;;;2.98;;
23001;SDS011;11667;51.706;4.856;2022-08-03T09:54:50;8.70;;;2.05;;
23001;SDS011;11667;51.706;4.856;2022-08-03T09:57:20;15.25;;;2.30;;
23001;SDS011;11667;51.706;4.856;2022-08-03T09:59:51;16.62;;;2.72;;
23001;SDS011;11667;51.706;4.856;2022-08-03T10:02:26;12.98;;;2.70;;
23001;SDS011;11667;51.706;4.856;2022-08-03T10:04:56;12.75;;;2.52;;
23001;SDS011;11667;51.706;4.856;2022-08-03T10:07:25;8.88;;;2.37;;
23001;SDS011;11667;51.706;4.856;2022-08-03T10:09:56;9.10;;;2.33;;
23001;SDS011;11667;51.706;4.856;2022-08-03T10:12:28;9.50;;;2.40;;
23001;SDS011;11667;51.706;4.856;2022-08-03T10:14:57;10.50;;;2.45;;
23001;SDS011;11667;51.706;4.856;2022-08-03T10:17:26;12.58;;;2.37;;
23001;SDS011;11667;51.706;4.856;2022-08-03T10:19:55;7.80;;;2.30;;
23001;SDS011;11667;51.706;4.856;2022-08-03T10:22:27;11.40;;;2.40;;
23001;SDS011;11667;51.706;4.856;2022-08-03T10:25:07;9.03;;;1.95;;
23001;SDS011;11667;51.706;4.856;2022-08-03T10:27:40;10.20;;;2.35;;
23001;SDS011;11667;51.706;4.856;2022-08-03T10:30:12;10.95;;;2.08;;
23001;SDS011;11667;51.706;4.856;2022-08-03T10:32:42;7.95;;;2.17;;
23001;SDS011;11667;51.706;4.856;2022-08-03T10:35:15;11.90;;;2.37;;
23001;SDS011;11667;51.706;4.856;2022-08-03T10:37:48;13.78;;;2.65;;
23001;SDS011;11667;51.706;4.856;2022-08-03T10:40:30;11.95;;;2.55;;
23001;SDS011;11667;51.706;4.856;2022-08-03T10:43:02;10.72;;;2.33;;
23001;SDS011;11667;51.706;4.856;2022-08-03T10:45:33;15.43;;;2.45;;
23001;SDS011;11667;51.706;4.856;2022-08-03T10:48:06;15.13;;;2.80;;
23001;SDS011;11667;51.706;4.856;2022-08-03T10:50:37;14.05;;;2.37;;
23001;SDS011;11667;51.706;4.856;2022-08-03T10:53:08;11.25;;;2.25;;
23001;SDS011;11667;51.706;4.856;2022-08-03T10:55:40;10.53;;;2.58;;
23001;SDS011;11667;51.706;4.856;2022-08-03T11:01:19;15.08;;;3.12;;
23001;SDS011;11667;51.706;4.856;2022-08-03T11:06:35;15.05;;;2.50;;
23001;SDS011;11667;51.706;4.856;2022-08-03T11:11:44;12.98;;;2.67;;
23001;SDS011;11667;51.706;4.856;2022-08-03T11:14:15;11.08;;;2.92;;
23001;SDS011;11667;51.706;4.856;2022-08-03T11:16:47;12.68;;;4.17;;
23001;SDS011;11667;51.706;4.856;2022-08-03T11:19:19;14.85;;;2.83;;
23001;SDS011;11667;51.706;4.856;2022-08-03T11:21:55;9.83;;;2.83;;
23001;SDS011;11667;51.706;4.856;2022-08-03T11:43:42;13.48;;;2.77;;
23001;SDS011;11667;51.706;4.856;2022-08-03T11:46:04;11.00;;;2.12;;
23001;SDS011;11667;51.706;4.856;2022-08-03T11:48:40;14.63;;;2.52;;
23001;SDS011;11667;51.706;4.856;2022-08-03T11:51:22;9.43;;;2.25;;
23001;SDS011;11667;51.706;4.856;2022-08-03T11:53:54;11.25;;;2.60;;
23001;SDS011;11667;51.706;4.856;2022-08-03T11:56:24;7.72;;;2.40;;
23001;SDS011;11667;51.706;4.856;2022-08-03T11:58:55;11.45;;;2.58;;
23001;SDS011;11667;51.706;4.856;2022-08-03T12:01:27;9.00;;;2.37;;
23001;SDS011;11667;51.706;4.856;2022-08-03T12:04:01;9.15;;;2.40;;
23001;SDS011;11667;51.706;4.856;2022-08-03T12:06:32;8.73;;;2.10;;
23001;SDS011;11667;51.706;4.856;2022-08-03T12:09:13;14.43;;;2.40;;
23001;SDS011;11667;51.706;4.856;2022-08-03T12:11:37;12.25;;;2.30;;
23001;SDS011;11667;51.706;4.856;2022-08-03T12:14:08;8.85;;;2.15;;
23001;SDS011;11667;51.706;4.856;2022-08-03T12:16:46;13.50;;;2.27;;
23001;SDS011;11667;51.706;4.856;2022-08-03T12:19:16;9.48;;;2.30;;
23001;SDS011;11667;51.706;4.856;2022-08-03T12:21:46;9.15;;;2.10;;
23001;SDS011;11667;51.706;4.856;2022-08-03T12:24:17;8.70;;;2.22;;
23001;SDS011;11667;51.706;4.856;2022-08-03T12:26:48;9.03;;;2.25;;
23001;SDS011;11667;51.706;4.856;2022-08-03T12:29:21;7.95;;;2.20;;
23001;SDS011;11667;51.706;4.856;2022-08-03T12:31:52;10.25;;;2.10;;
23001;SDS011;11667;51.706;4.856;2022-08-03T12:34:22;6.92;;;1.90;;
23001;SDS011;11667;51.706;4.856;2022-08-03T12:36:54;10.75;;;1.90;;
23001;SDS011;11667;51.706;4.856;2022-08-03T12:39:25;10.78;;;2.12;;
23001;SDS011;11667;51.706;4.856;2022-08-03T12:41:57;9.68;;;2.40;;
23001;SDS011;11667;51.706;4.856;2022-08-03T12:44:30;9.53;;;2.05;;
23001;SDS011;11667;51.706;4.856;2022-08-03T12:47:01;6.40;;;2.02;;
23001;SDS011;11667;51.706;4.856;2022-08-03T12:49:46;7.90;;;2.08;;
23001;SDS011;11667;51.706;4.856;2022-08-03T12:52:17;9.45;;;2.02;;
23001;SDS011;11667;51.706;4.856;2022-08-03T12:54:57;8.65;;;1.82;;
23001;SDS011;11667;51.706;4.856;2022-08-03T12:57:40;8.35;;;2.00;;
23001;SDS011;11667;51.706;4.856;2022-08-03T13:00:10;8.88;;;2.00;;
23001;SDS011;11667;51.706;4.856;2022-08-03T13:02:43;6.22;;;1.95;;
23001;SDS011;11667;51.706;4.856;2022-08-03T13:05:14;8.13;;;1.80;;
23001;SDS011;11667;51.706;4.856;2022-08-03T13:07:44;7.62;;;1.80;;
23001;SDS011;11667;51.706;4.856;2022-08-03T13:10:26;7.70;;;2.02;;
23001;SDS011;11667;51.706;4.856;2022-08-03T13:37:12;41.58;;;31.27;;
23001;SDS011;11667;51.706;4.856;2022-08-03T13:42:09;49.18;;;33.60;;
23001;SDS011;11667;51.706;4.856;2022-08-03T13:44:39;45.90;;;35.73;;
23001;SDS011;11667;51.706;4.856;2022-08-03T13:47:08;42.78;;;34.20;;
23001;SDS011;11667;51.706;4.856;2022-08-03T13:49:37;46.85;;;31.50;;
23001;SDS011;11667;51.706;4.856;2022-08-03T13:52:06;103.45;;;43.28;;
23001;SDS011;11667;51.706;4.856;2022-08-03T13:54:36;426.22;;;127.20;;
23001;SDS011;11667;51.706;4.856;2022-08-03T13:57:09;42.48;;;34.23;;
23001;SDS011;11667;51.706;4.856;2022-08-03T13:59:40;43.00;;;33.98;;
23001;SDS011;11667;51.706;4.856;2022-08-03T14:02:10;42.62;;;33.30;;
23001;SDS011;11667;51.706;4.856;2022-08-03T14:04:41;45.60;;;35.40;;
23001;SDS011;11667;51.706;4.856;2022-08-03T14:07:19;45.23;;;36.53;;
23001;SDS011;11667;51.706;4.856;2022-08-03T14:09:47;51.15;;;37.98;;
23001;SDS011;11667;51.706;4.856;2022-08-03T14:12:18;49.27;;;39.35;;
23001;SDS011;11667;51.706;4.856;2022-08-03T14:14:49;52.55;;;39.73;;
23001;SDS011;11667;51.706;4.856;2022-08-03T14:17:18;49.85;;;38.73;;
23001;SDS011;11667;51.706;4.856;2022-08-03T14:19:49;52.08;;;39.27;;
23001;SDS011;11667;51.706;4.856;2022-08-03T14:22:20;49.10;;;38.20;;
23001;SDS011;11667;51.706;4.856;2022-08-03T14:24:50;49.20;;;36.90;;
23001;SDS011;11667;51.706;4.856;2022-08-03T14:27:19;46.45;;;36.28;;
23001;SDS011;11667;51.706;4.856;2022-08-03T14:29:49;47.23;;;36.77;;
23001;SDS011;11667;51.706;4.856;2022-08-03T14:32:18;48.23;;;37.67;;
23001;SDS011;11667;51.706;4.856;2022-08-03T14:34:48;49.83;;;39.33;;
23001;SDS011;11667;51.706;4.856;2022-08-03T14:37:17;53.73;;;42.27;;
23001;SDS011;11667;51.706;4.856;2022-08-03T14:39:47;51.80;;;41.37;;
23001;SDS011;11667;51.706;4.856;2022-08-03T14:42:18;48.80;;;38.80;;
23001;SDS011;11667;51.706;4.856;2022-08-03T14:44:47;51.73;;;39.70;;
23001;SDS011;11667;51.706;4.856;2022-08-03T14:47:16;50.35;;;39.40;;
23001;SDS011;11667;51.706;4.856;2022-08-03T14:49:46;51.50;;;38.42;;
23001;SDS011;11667;51.706;4.856;2022-08-03T14:52:17;47.10;;;37.88;;
23001;SDS011;11667;51.706;4.856;2022-08-03T14:54:46;45.05;;;35.70;;
23001;SDS011;11667;51.706;4.856;2022-08-03T14:57:15;41.70;;;33.35;;
23001;SDS011;11667;51.706;4.856;2022-08-03T14:59:45;95.50;;;45.95;;
23001;SDS011;11667;51.706;4.856;2022-08-03T15:02:16;39.90;;;22.52;;
23001;SDS011;11667;51.706;4.856;2022-08-03T15:04:47;36.13;;;20.85;;
23001;SDS011;11667;51.706;4.856;2022-08-03T15:07:16;33.25;;;19.77;;
23001;SDS011;11667;51.706;4.856;2022-08-03T15:09:47;28.90;;;18.42;;
23001;SDS011;11667;51.706;4.856;2022-08-03T15:12:16;29.15;;;16.80;;
23001;SDS011;11667;51.706;4.856;2022-08-03T15:14:46;28.27;;;17.25;;
23001;SDS011;11667;51.706;4.856;2022-08-03T19:35:11;524.00;;;131.65;;
23001;SDS011;11667;51.706;4.856;2022-08-03T19:37:42;5.72;;;2.12;;
23001;SDS011;11667;51.706;4.856;2022-08-03T19:40:12;5.40;;;2.10;;
23001;SDS011;11667;51.706;4.856;2022-08-03T19:42:44;6.70;;;2.20;;
23001;SDS011;11667;51.706;4.856;2022-08-03T19:45:16;7.25;;;2.33;;
23001;SDS011;11667;51.706;4.856;2022-08-03T19:50:15;7.55;;;2.20;;
23001;SDS011;11667;51.706;4.856;2022-08-03T19:52:47;8.40;;;2.57;;
23001;SDS011;11667;51.706;4.856;2022-08-03T19:55:17;8.38;;;2.30;;
23001;SDS011;11667;51.706;4.856;2022-08-03T19:57:46;5.30;;;2.22;;
23001;SDS011;11667;51.706;4.856;2022-08-03T20:00:18;7.08;;;2.52;;
23001;SDS011;11667;51.706;4.856;2022-08-03T20:02:49;5.28;;;2.25;;
23001;SDS011;11667;51.706;4.856;2022-08-03T20:05:18;8.75;;;2.50;;
23001;SDS011;11667;51.706;4.856;2022-08-03T20:07:49;10.23;;;2.50;;
23001;SDS011;11667;51.706;4.856;2022-08-03T20:10:18;5.85;;;2.60;;
23001;SDS011;11667;51.706;4.856;2022-08-03T20:12:48;4.65;;;2.30;;
23001;SDS011;11667;51.706;4.856;2022-08-03T20:15:18;7.60;;;2.15;;
23001;SDS011;11667;51.706;4.856;2022-08-03T20:17:49;6.12;;;2.30;;
23001;SDS011;11667;51.706;4.856;2022-08-03T20:20:21;5.00;;;2.08;;
23001;SDS011;11667;51.706;4.856;2022-08-03T20:22:54;4.90;;;2.00;;
23001;SDS011;11667;51.706;4.856;2022-08-03T20:25:29;6.40;;;2.52;;
23001;SDS011;11667;51.706;4.856;2022-08-03T20:28:03;6.15;;;2.58;;
23001;SDS011;11667;51.706;4.856;2022-08-03T20:30:36;7.80;;;2.40;;
23001;SDS011;11667;51.706;4.856;2022-08-03T20:33:07;6.87;;;2.33;;